Time;durP1;ratioP1;P1;durP2;ratioP2;P2;SDS_P1;SDS_P2;PMS_P1;PMS_P2;Temp;Humidity;BMP_temperature;BMP_pressure;BME280_temperature;BME280_humidity;BME280_pressure;Samples;Min_cycle;Max_cycle;Signal;HPM_P1;HPM_P2
2021/01/23 00:02:08;;;;;;;15.05;7.28;;;19.50;99.90;;;;;;5093243;28;20107;-43
2021/01/23 00:04:34;;;;;;;12.73;6.93;;;19.50;99.90;;;;;;5091533;28;20378;-43
2021/01/23 00:07:00;;;;;;;11.90;7.07;;;19.50;99.90;;;;;;5073571;28;20730;-42
2021/01/23 00:09:25;;;;;;;16.92;7.70;;;19.50;99.90;;;;;;5092544;28;20084;-42
2021/01/23 00:11:51;;;;;;;14.65;6.68;;;19.50;99.90;;;;;;5091888;28;20077;-43
2021/01/23 00:14:17;;;;;;;14.45;6.35;;;19.50;99.90;;;;;;5092232;28;20077;-43
2021/01/23 00:16:43;;;;;;;11.25;6.38;;;19.40;99.90;;;;;;5092007;28;20024;-42
2021/01/23 00:19:09;;;;;;;12.27;6.47;;;19.40;99.90;;;;;;5091547;28;20110;-42
2021/01/23 00:21:36;;;;;;;13.45;6.25;;;19.40;99.90;;;;;;5091704;28;20024;-43
2021/01/23 00:24:03;;;;;;;14.18;6.22;;;19.40;99.90;;;;;;5092269;28;20031;-43
2021/01/23 00:26:29;;;;;;;12.35;6.07;;;19.40;99.90;;;;;;5091919;28;20020;-43
2021/01/23 00:28:54;;;;;;;12.95;6.28;;;19.40;99.90;;;;;;5092245;28;20495;-43
2021/01/23 00:31:20;;;;;;;11.85;5.43;;;19.30;99.90;;;;;;5091869;28;20024;-42
2021/01/23 00:33:46;;;;;;;10.55;5.85;;;19.30;99.90;;;;;;5071830;28;20417;-43
2021/01/23 00:36:12;;;;;;;10.90;5.35;;;19.30;99.90;;;;;;5092467;28;20028;-29
2021/01/23 00:38:38;;;;;;;11.63;5.40;;;19.30;99.90;;;;;;5092480;28;20060;-29
2021/01/23 00:41:04;;;;;;;14.40;6.18;;;19.30;99.90;;;;;;5093305;28;20324;-29
2021/01/23 00:43:30;;;;;;;11.68;5.15;;;19.30;99.90;;;;;;5093205;28;20028;-29
2021/01/23 00:45:55;;;;;;;14.55;6.53;;;19.20;99.90;;;;;;5093567;28;20032;-29
2021/01/23 00:48:21;;;;;;;11.23;5.45;;;19.20;99.90;;;;;;5091990;28;20796;-29
2021/01/23 00:50:48;;;;;;;8.95;4.88;;;19.20;99.90;;;;;;5092944;28;20056;-29
2021/01/23 00:53:13;;;;;;;12.05;5.78;;;19.20;99.90;;;;;;5092804;28;20027;-29
2021/01/23 00:55:39;;;;;;;11.68;5.65;;;19.20;99.90;;;;;;5095772;28;20035;-42
2021/01/23 00:58:05;;;;;;;9.23;5.60;;;19.20;99.90;;;;;;5092014;28;20106;-43
2021/01/23 01:00:31;;;;;;;10.05;5.85;;;19.20;99.90;;;;;;5091387;28;20024;-43
2021/01/23 01:02:57;;;;;;;10.05;5.63;;;19.20;99.90;;;;;;5091718;28;20079;-44
2021/01/23 01:05:22;;;;;;;15.50;6.95;;;19.10;99.90;;;;;;5091623;28;20039;-44
2021/01/23 01:07:48;;;;;;;12.18;6.13;;;19.10;99.90;;;;;;5090782;28;20063;-42
2021/01/23 01:10:14;;;;;;;10.00;5.88;;;19.10;99.90;;;;;;5090438;28;20084;-42
2021/01/23 01:12:40;;;;;;;13.63;6.70;;;19.10;99.90;;;;;;5091786;28;20036;-43
2021/01/23 01:15:06;;;;;;;11.98;6.15;;;19.10;99.90;;;;;;5091900;28;20039;-42
2021/01/23 01:17:32;;;;;;;13.07;6.60;;;19.10;99.90;;;;;;5091030;28;20099;-43
2021/01/23 01:19:58;;;;;;;10.52;5.55;;;19.00;99.90;;;;;;5090944;28;20098;-43
2021/01/23 01:22:24;;;;;;;11.65;5.70;;;19.00;99.90;;;;;;5091321;28;20024;-42
2021/01/23 01:24:50;;;;;;;11.63;6.65;;;19.10;99.90;;;;;;5091598;28;20029;-42
2021/01/23 01:27:16;;;;;;;10.18;6.60;;;19.00;99.90;;;;;;5093401;28;20287;-42
2021/01/23 01:29:42;;;;;;;10.68;5.40;;;19.00;99.90;;;;;;5112268;28;20103;-42
2021/01/23 01:32:07;;;;;;;14.30;7.30;;;19.00;99.90;;;;;;5095117;28;20166;-42
2021/01/23 01:34:33;;;;;;;12.52;6.40;;;19.00;99.90;;;;;;5090836;28;20818;-43
2021/01/23 01:36:59;;;;;;;10.43;6.47;;;18.90;99.90;;;;;;5090941;28;20030;-42
2021/01/23 01:39:26;;;;;;;13.07;6.57;;;18.90;99.90;;;;;;5090672;28;20032;-42
2021/01/23 01:41:51;;;;;;;13.93;6.90;;;19.00;99.90;;;;;;5091444;28;20024;-42
2021/01/23 01:44:17;;;;;;;9.63;6.25;;;18.90;99.90;;;;;;5090469;28;20541;-43
2021/01/23 01:46:43;;;;;;;11.90;7.25;;;18.90;99.90;;;;;;5090562;28;20020;-42
2021/01/23 01:49:09;;;;;;;9.98;6.20;;;18.90;99.90;;;;;;5092767;28;20063;-42
2021/01/23 01:51:35;;;;;;;10.15;6.05;;;18.90;99.90;;;;;;5095304;28;20086;-42
2021/01/23 01:54:02;;;;;;;12.68;6.65;;;18.90;99.90;;;;;;5100260;28;20437;-42
2021/01/23 01:56:28;;;;;;;9.65;6.43;;;18.90;99.90;;;;;;5094673;28;20032;-42
2021/01/23 01:58:53;;;;;;;10.60;7.22;;;18.90;99.90;;;;;;5094521;28;20030;-43
2021/01/23 02:01:19;;;;;;;10.55;6.10;;;18.90;99.90;;;;;;5094226;28;20119;-42
2021/01/23 02:04:14;;;;;;;11.77;7.03;;;18.90;99.90;;;;;;5094550;28;20028;-43
2021/01/23 02:06:48;;;;;;;11.30;6.82;;;18.80;99.90;;;;;;5098968;28;20024;-42
2021/01/23 02:09:25;;;;;;;18.08;7.22;;;18.90;99.90;;;;;;5108341;28;20048;-42
2021/01/23 02:12:10;;;;;;;14.13;7.18;;;18.90;99.90;;;;;;5115340;28;20023;-42
2021/01/23 02:14:48;;;;;;;11.57;6.43;;;18.90;99.90;;;;;;5094579;28;20039;-42
2021/01/23 02:17:16;;;;;;;10.85;6.55;;;18.90;99.90;;;;;;5094346;28;20024;-42
2021/01/23 02:19:51;;;;;;;12.75;7.07;;;18.90;99.90;;;;;;5094149;28;20145;-42
2021/01/23 02:22:44;;;;;;;11.57;6.18;;;18.90;99.90;;;;;;5075551;28;20031;-42
2021/01/23 02:25:12;;;;;;;10.75;6.20;;;18.80;99.90;;;;;;5109736;28;20055;-42
2021/01/23 02:27:46;;;;;;;;;;;18.80;99.90;;;;;;5095157;28;20470;-43
2021/01/23 02:30:39;;;;;;;7.68;5.82;;;18.80;99.90;;;;;;5094889;28;19908;-42
2021/01/23 02:33:09;;;;;;;9.27;5.53;;;18.80;99.90;;;;;;5094124;28;20027;-43
2021/01/23 02:35:36;;;;;;;11.25;6.15;;;18.80;99.90;;;;;;5094098;28;20046;-43
2021/01/23 02:38:03;;;;;;;11.13;5.45;;;18.80;99.90;;;;;;5076172;28;20024;-43
2021/01/23 02:40:29;;;;;;;11.40;5.70;;;18.80;99.90;;;;;;5094007;28;20420;-43
2021/01/23 02:42:55;;;;;;;8.43;5.53;;;18.80;99.90;;;;;;5092467;28;20107;-43
2021/01/23 02:45:20;;;;;;;10.43;5.55;;;18.80;99.90;;;;;;5094070;28;20545;-43
2021/01/23 02:47:46;;;;;;;11.68;5.43;;;18.80;99.90;;;;;;5095867;28;20032;-43
2021/01/23 02:50:13;;;;;;;9.55;5.72;;;18.80;99.90;;;;;;5094079;28;20026;-42
2021/01/23 02:53:02;;;;;;;9.25;6.13;;;18.80;99.90;;;;;;5093771;28;20376;-42
2021/01/23 02:55:32;;;;;;;8.70;5.70;;;18.80;99.90;;;;;;5098603;28;20020;-43
2021/01/23 02:58:04;;;;;;;9.70;5.82;;;18.80;99.90;;;;;;5089045;28;20028;-43
2021/01/23 03:00:32;;;;;;;12.32;5.95;;;18.80;99.90;;;;;;5078848;28;20034;-43
2021/01/23 03:03:01;;;;;;;12.13;5.80;;;18.80;99.90;;;;;;5093338;28;20066;-43
2021/01/23 03:05:32;;;;;;;10.93;6.05;;;18.80;99.90;;;;;;5093731;28;20123;-43
2021/01/23 03:07:58;;;;;;;14.93;6.22;;;18.70;99.90;;;;;;5092633;28;20094;-42
2021/01/23 03:10:40;;;;;;;12.45;5.85;;;18.70;99.90;;;;;;5093758;28;20474;-43
2021/01/23 03:13:07;;;;;;;13.32;6.63;;;18.70;99.90;;;;;;5093166;28;20031;-43
2021/01/23 03:15:34;;;;;;;10.38;7.55;;;18.70;99.90;;;;;;5093618;28;20052;-43
2021/01/23 03:18:00;;;;;;;10.65;6.40;;;18.70;99.90;;;;;;5092953;28;20024;-43
2021/01/23 03:20:26;;;;;;;12.05;7.40;;;18.80;99.90;;;;;;5093238;28;20386;-43
2021/01/23 03:22:54;;;;;;;11.30;8.15;;;18.70;99.90;;;;;;5092755;28;20414;-43
2021/01/23 03:25:20;;;;;;;13.35;7.80;;;18.70;99.90;;;;;;5093466;28;20020;-42
2021/01/23 03:27:45;;;;;;;12.70;9.27;;;18.70;99.90;;;;;;5092826;28;20134;-43
2021/01/23 03:30:12;;;;;;;13.40;10.27;;;18.70;99.90;;;;;;5093554;28;20028;-43
2021/01/23 03:32:38;;;;;;;14.57;11.18;;;18.70;99.90;;;;;;5092736;28;20028;-43
2021/01/23 03:35:05;;;;;;;17.48;13.25;;;18.70;99.90;;;;;;5092776;28;20062;-43
2021/01/23 03:37:33;;;;;;;15.75;12.85;;;18.70;99.90;;;;;;5092779;28;20036;-43
2021/01/23 03:40:04;;;;;;;17.65;12.93;;;18.70;99.90;;;;;;5093265;28;20399;-43
2021/01/23 03:42:30;;;;;;;18.33;14.07;;;18.70;99.90;;;;;;5092637;28;20474;-43
2021/01/23 03:44:56;;;;;;;16.88;13.00;;;18.60;99.90;;;;;;5091322;28;20062;-43
2021/01/23 03:47:22;;;;;;;17.15;13.95;;;18.70;99.90;;;;;;5109069;28;20027;-42
2021/01/23 03:49:48;;;;;;;16.70;13.52;;;18.70;99.90;;;;;;5100534;28;20027;-43
2021/01/23 03:52:14;;;;;;;16.73;13.23;;;18.60;99.90;;;;;;5092837;28;20382;-43
2021/01/23 03:54:41;;;;;;;14.82;11.80;;;18.60;99.90;;;;;;5092492;28;20493;-43
2021/01/23 03:57:08;;;;;;;17.35;12.35;;;18.60;99.90;;;;;;5074140;28;20036;-44
2021/01/23 03:59:34;;;;;;;14.45;12.57;;;18.60;99.90;;;;;;5082159;28;20111;-43
2021/01/23 04:02:00;;;;;;;16.80;12.63;;;18.60;99.90;;;;;;5092414;28;20024;-43
2021/01/23 04:04:26;;;;;;;17.73;12.27;;;18.60;99.90;;;;;;5092651;28;20099;-43
2021/01/23 04:06:51;;;;;;;17.15;12.80;;;18.60;99.90;;;;;;5074459;28;20024;-43
2021/01/23 04:09:17;;;;;;;16.45;11.93;;;18.60;99.90;;;;;;5092684;28;20035;-43
2021/01/23 04:11:43;;;;;;;15.82;11.93;;;18.60;99.90;;;;;;5098099;28;20051;-43
2021/01/23 04:14:09;;;;;;;15.85;11.07;;;18.60;99.90;;;;;;5092044;28;20424;-43
2021/01/23 04:16:35;;;;;;;15.73;11.95;;;18.60;99.90;;;;;;5092212;28;20024;-44
2021/01/23 04:19:00;;;;;;;15.15;10.90;;;18.60;99.90;;;;;;5091538;28;20031;-43
2021/01/23 04:21:26;;;;;;;15.48;10.50;;;18.60;99.90;;;;;;5074131;28;20028;-43
2021/01/23 04:23:52;;;;;;;14.80;11.10;;;18.60;99.90;;;;;;5091778;28;20032;-43
2021/01/23 04:26:18;;;;;;;15.90;11.15;;;18.50;99.90;;;;;;5091797;28;20351;-43
2021/01/23 04:28:44;;;;;;;13.88;10.65;;;18.50;99.90;;;;;;5092114;28;20028;-30
2021/01/23 04:31:10;;;;;;;15.82;12.10;;;18.50;99.90;;;;;;5093822;28;20476;-30
2021/01/23 04:33:36;;;;;;;16.17;11.38;;;18.50;99.90;;;;;;5092900;28;20031;-30
2021/01/23 04:36:02;;;;;;;15.20;10.32;;;18.50;99.90;;;;;;5093430;28;20077;-30
2021/01/23 04:38:28;;;;;;;13.95;10.77;;;18.50;99.90;;;;;;5086226;28;20550;-30
2021/01/23 04:40:56;;;;;;;14.40;10.80;;;18.50;99.90;;;;;;5093089;28;20028;-30
2021/01/23 04:43:22;;;;;;;13.18;10.82;;;18.50;99.90;;;;;;5089268;28;20028;-30
2021/01/23 04:45:49;;;;;;;12.75;10.18;;;18.50;99.90;;;;;;5092461;28;20028;-30
2021/01/23 04:48:18;;;;;;;18.60;11.15;;;18.50;99.90;;;;;;5093189;28;20024;-30
2021/01/23 04:50:46;;;;;;;13.32;10.27;;;18.50;99.90;;;;;;5093212;28;20074;-30
2021/01/23 04:53:13;;;;;;;13.30;10.15;;;18.50;99.90;;;;;;5093481;28;20025;-30
2021/01/23 04:55:42;;;;;;;12.80;10.73;;;18.50;99.90;;;;;;5093111;28;20073;-30
2021/01/23 04:58:08;;;;;;;12.43;9.85;;;18.40;99.90;;;;;;5074887;28;20377;-30
2021/01/23 05:00:34;;;;;;;11.88;9.90;;;18.50;99.90;;;;;;5092981;28;20032;-30
2021/01/23 05:03:02;;;;;;;12.82;10.93;;;18.40;99.90;;;;;;5092910;28;20035;-30
2021/01/23 05:05:29;;;;;;;14.00;10.45;;;18.40;99.90;;;;;;5093584;28;20031;-30
2021/01/23 05:08:11;;;;;;;16.67;11.48;;;18.40;99.90;;;;;;5074853;28;20016;-30
2021/01/23 05:10:41;;;;;;;15.63;11.40;;;18.40;99.90;;;;;;5089403;28;20027;-30
2021/01/23 05:13:17;;;;;;;14.77;11.32;;;18.40;99.90;;;;;;5092645;28;20036;-30
2021/01/23 05:15:46;;;;;;;13.88;11.63;;;18.40;99.90;;;;;;5108758;28;20027;-30
2021/01/23 05:18:13;;;;;;;15.70;12.30;;;18.40;99.90;;;;;;5113008;28;20023;-30
2021/01/23 05:20:53;;;;;;;14.75;11.20;;;18.40;99.90;;;;;;5113546;28;20567;-30
2021/01/23 05:23:28;;;;;;;14.60;11.65;;;18.40;99.90;;;;;;5106279;28;20036;-30
2021/01/23 05:26:01;;;;;;;14.55;11.82;;;18.40;99.90;;;;;;5096595;28;20099;-30
2021/01/23 05:28:35;;;;;;;14.52;11.02;;;18.40;99.90;;;;;;5100353;28;20486;-30
2021/01/23 05:31:03;;;;;;;16.40;11.93;;;18.40;99.90;;;;;;5117440;28;20103;-30
2021/01/23 05:33:33;;;;;;;15.85;10.77;;;18.40;99.90;;;;;;5097624;28;20123;-30
2021/01/23 05:36:05;;;;;;;14.75;12.40;;;18.40;99.90;;;;;;5096672;28;20107;-30
2021/01/23 05:38:33;;;;;;;13.35;11.32;;;18.40;99.90;;;;;;5095439;28;20028;-30
2021/01/23 05:41:05;;;;;;;15.10;11.07;;;18.30;99.90;;;;;;5095931;28;20381;-30
2021/01/23 05:43:49;;;;;;;14.40;11.15;;;18.30;99.90;;;;;;5096391;28;20029;-30
2021/01/23 05:46:18;;;;;;;12.90;11.40;;;18.30;99.90;;;;;;5096430;28;20059;-30
2021/01/23 05:48:46;;;;;;;14.48;12.38;;;18.30;99.90;;;;;;5096663;28;20027;-30
2021/01/23 05:51:13;;;;;;;13.77;11.95;;;18.30;99.90;;;;;;5096506;28;20027;-30
2021/01/23 05:53:40;;;;;;;16.08;11.98;;;18.30;99.90;;;;;;5080411;28;20035;-30
2021/01/23 05:56:06;;;;;;;15.65;12.50;;;18.30;99.90;;;;;;5096514;28;20493;-30
2021/01/23 05:58:34;;;;;;;17.20;12.40;;;18.30;99.90;;;;;;5096447;28;20028;-30
2021/01/23 06:01:04;;;;;;;15.50;11.43;;;18.30;99.90;;;;;;5092208;28;20093;-30
2021/01/23 06:03:43;;;;;;;14.75;12.50;;;18.30;99.90;;;;;;5092299;28;20378;-43
2021/01/23 06:06:09;;;;;;;14.18;11.52;;;18.30;99.90;;;;;;5094483;28;20020;-44
2021/01/23 06:08:46;;;;;;;15.90;12.18;;;18.30;99.90;;;;;;5094840;28;20038;-43
2021/01/23 06:11:20;;;;;;;13.23;11.18;;;18.30;99.90;;;;;;5076071;28;20097;-43
2021/01/23 06:13:50;;;;;;;16.33;11.25;;;18.30;99.90;;;;;;5093715;28;20102;-43
2021/01/23 06:16:34;;;;;;;14.25;11.73;;;18.30;99.90;;;;;;5093923;28;20028;-44
2021/01/23 06:19:00;;;;;;;15.05;11.00;;;18.30;99.90;;;;;;5100103;28;20036;-43
2021/01/23 06:21:44;;;;;;;13.95;11.70;;;18.30;99.90;;;;;;5094429;28;20032;-43
2021/01/23 06:24:17;;;;;;;14.45;11.88;;;18.20;99.90;;;;;;5093544;28;20414;-44
2021/01/23 06:27:04;;;;;;;13.90;12.25;;;18.20;99.90;;;;;;5093351;28;20024;-46
2021/01/23 06:29:56;;;;;;;15.23;11.65;;;18.20;99.90;;;;;;5094534;28;20028;-44
2021/01/23 06:32:21;;;;;;;14.60;11.35;;;18.20;99.90;;;;;;5086758;28;20040;-30
2021/01/23 06:34:52;;;;;;;14.60;11.60;;;18.20;99.90;;;;;;5074615;28;20048;-45
2021/01/23 06:37:28;;;;;;;14.57;12.13;;;18.20;99.90;;;;;;5094513;28;20473;-31
2021/01/23 06:40:02;;;;;;;14.82;11.98;;;18.20;99.90;;;;;;5073155;28;20102;-32
2021/01/23 06:42:28;;;;;;;17.35;13.05;;;18.20;99.90;;;;;;5076290;28;20028;-44
2021/01/23 06:44:54;;;;;;;14.25;12.70;;;18.20;99.90;;;;;;5093823;28;20025;-29
2021/01/23 06:47:20;;;;;;;17.02;14.68;;;18.20;99.90;;;;;;5095176;28;20359;-31
2021/01/23 06:49:46;;;;;;;19.60;16.48;;;18.20;99.90;;;;;;5095071;28;20054;-31
2021/01/23 06:52:12;;;;;;;21.75;18.27;;;18.20;99.90;;;;;;5076201;28;20021;-30
2021/01/23 06:54:38;;;;;;;23.00;18.85;;;18.20;99.90;;;;;;5094875;28;20016;-30
2021/01/23 06:57:06;;;;;;;23.42;19.42;;;18.20;99.90;;;;;;5094607;28;20030;-30
2021/01/23 06:59:36;;;;;;;24.60;19.92;;;18.20;99.90;;;;;;5094565;28;20095;-30
2021/01/23 07:02:07;;;;;;;27.52;22.00;;;18.20;99.90;;;;;;5094300;28;20024;-30
2021/01/23 07:04:43;;;;;;;26.67;21.55;;;18.20;99.90;;;;;;5093219;28;20055;-31
2021/01/23 07:07:10;;;;;;;26.65;22.50;;;18.20;99.90;;;;;;5083185;28;20442;-32
2021/01/23 07:09:53;;;;;;;27.45;22.35;;;18.20;99.90;;;;;;5093764;28;20039;-31
2021/01/23 07:12:36;;;;;;;30.30;24.73;;;18.20;99.90;;;;;;5094359;28;20028;-31
2021/01/23 07:15:09;;;;;;;29.48;24.73;;;18.20;99.90;;;;;;5093606;28;20031;-32
2021/01/23 07:17:40;;;;;;;29.45;24.98;;;18.20;99.90;;;;;;5094343;28;20039;-31
2021/01/23 07:20:11;;;;;;;32.67;25.55;;;18.20;99.90;;;;;;5093040;28;20058;-31
2021/01/23 07:22:41;;;;;;;30.85;25.80;;;18.20;99.90;;;;;;5092547;28;20032;-32
2021/01/23 07:25:15;;;;;;;31.98;27.13;;;18.30;99.90;;;;;;5093297;28;20051;-32
2021/01/23 07:27:42;;;;;;;35.53;28.63;;;18.30;99.90;;;;;;5092245;28;20035;-32
2021/01/23 07:30:16;;;;;;;31.42;26.45;;;18.30;99.90;;;;;;5093575;28;20050;-31
2021/01/23 07:32:44;;;;;;;29.75;26.48;;;18.30;99.90;;;;;;5092551;28;20028;-32
2021/01/23 07:35:11;;;;;;;28.75;25.00;;;18.30;99.90;;;;;;5113956;28;20080;-31
2021/01/23 07:37:43;;;;;;;30.80;25.38;;;18.30;99.90;;;;;;5100602;28;20032;-31
2021/01/23 07:40:11;;;;;;;28.98;24.27;;;18.30;99.90;;;;;;5094195;28;20028;-32
2021/01/23 07:42:38;;;;;;;30.05;24.90;;;18.30;99.90;;;;;;5092818;28;20032;-31
2021/01/23 07:45:05;;;;;;;29.83;24.17;;;18.30;99.90;;;;;;5093664;28;20027;-31
2021/01/23 07:47:31;;;;;;;29.85;24.30;;;18.30;99.90;;;;;;5093552;28;20050;-32
2021/01/23 07:50:14;;;;;;;29.20;24.92;;;18.30;99.90;;;;;;5093220;28;20028;-32
2021/01/23 07:52:41;;;;;;;28.80;23.33;;;18.30;99.90;;;;;;5084928;28;20089;-31
2021/01/23 07:55:08;;;;;;;27.85;23.05;;;18.40;99.90;;;;;;5087871;28;20536;-31
2021/01/23 07:57:34;;;;;;;31.95;23.33;;;18.40;99.90;;;;;;5086874;28;20036;-31
2021/01/23 08:00:01;;;;;;;27.55;21.83;;;18.40;99.90;;;;;;5088136;28;20103;-31
2021/01/23 08:02:27;;;;;;;27.23;20.38;;;18.40;99.90;;;;;;5087822;28;20111;-31
2021/01/23 08:04:56;;;;;;;26.33;20.65;;;18.40;99.90;;;;;;5089604;28;20020;-31
2021/01/23 08:07:31;;;;;;;24.80;20.15;;;18.50;99.90;;;;;;5087898;28;20111;-31
2021/01/23 08:10:10;;;;;;;26.20;18.67;;;18.50;99.90;;;;;;5087565;28;20020;-31
2021/01/23 08:12:38;;;;;;;22.65;18.95;;;18.50;99.90;;;;;;5082165;28;20024;-31
2021/01/23 08:15:06;;;;;;;21.92;18.02;;;18.50;99.90;;;;;;5087272;28;20089;-31
2021/01/23 08:17:47;;;;;;;21.02;17.63;;;18.50;99.90;;;;;;5088292;28;20025;-31
2021/01/23 08:20:28;;;;;;;21.35;18.02;;;18.60;99.90;;;;;;5087807;28;20412;-31
2021/01/23 08:22:57;;;;;;;19.23;16.80;;;18.60;99.90;;;;;;5082501;28;20900;-31
2021/01/23 08:25:28;;;;;;;22.23;16.73;;;18.60;99.90;;;;;;5090519;28;20095;-31
2021/01/23 08:27:56;;;;;;;20.77;15.98;;;18.60;99.90;;;;;;5088224;28;20035;-31
2021/01/23 08:30:23;;;;;;;21.50;16.40;;;18.60;99.90;;;;;;5088838;28;20073;-31
2021/01/23 08:32:50;;;;;;;23.65;16.88;;;18.60;99.90;;;;;;5089454;28;20123;-32
2021/01/23 08:35:17;;;;;;;366.98;298.23;;;18.70;99.90;;;;;;5088640;28;20075;-32
2021/01/23 08:37:44;;;;;;;380.77;321.50;;;18.70;99.90;;;;;;5088543;28;20028;-32
2021/01/23 08:40:11;;;;;;;216.15;186.40;;;18.70;99.90;;;;;;5087683;28;20058;-32
2021/01/23 08:42:36;;;;;;;125.03;103.38;;;18.60;99.90;;;;;;5067900;28;20044;-47
2021/01/23 08:45:05;;;;;;;104.93;85.35;;;18.60;99.90;;;;;;5085184;28;20046;-47
2021/01/23 08:47:31;;;;;;;68.97;56.72;;;18.50;99.90;;;;;;5084381;28;20024;-44
2021/01/23 08:49:56;;;;;;;55.95;45.08;;;18.50;99.90;;;;;;5086076;28;20058;-44
2021/01/23 08:52:22;;;;;;;54.80;41.72;;;18.50;99.90;;;;;;5085618;28;20028;-44
2021/01/23 08:54:48;;;;;;;45.42;36.47;;;18.40;99.90;;;;;;5084978;28;20114;-44
2021/01/23 08:57:14;;;;;;;35.47;28.08;;;18.40;99.90;;;;;;5082235;28;20040;-44
2021/01/23 08:59:40;;;;;;;41.90;30.70;;;18.40;99.90;;;;;;5082967;28;20040;-42
2021/01/23 09:02:06;;;;;;;47.88;38.15;;;18.30;99.90;;;;;;5084053;28;20488;-42
2021/01/23 09:04:32;;;;;;;68.35;54.72;;;18.40;99.90;;;;;;5086079;28;20031;-42
2021/01/23 09:06:58;;;;;;;63.78;49.72;;;18.50;99.90;;;;;;5086422;28;20016;-42
2021/01/23 09:09:24;;;;;;;43.85;33.33;;;18.50;99.90;;;;;;5084972;28;20520;-42
2021/01/23 09:11:50;;;;;;;28.00;21.67;;;18.60;99.90;;;;;;5084831;28;20031;-44
2021/01/23 09:14:16;;;;;;;32.95;22.85;;;18.60;99.90;;;;;;5084654;28;20517;-43
2021/01/23 09:16:42;;;;;;;35.17;26.45;;;18.70;99.90;;;;;;5083479;28;20493;-43
2021/01/23 09:19:08;;;;;;;30.05;20.05;;;18.80;99.90;;;;;;5083655;28;20036;-43
2021/01/23 09:21:34;;;;;;;117.88;92.95;;;18.80;99.90;;;;;;5084529;28;20373;-41
2021/01/23 09:24:00;;;;;;;46.75;37.33;;;18.90;99.90;;;;;;5082648;28;20135;-44
2021/01/23 09:26:26;;;;;;;34.70;27.75;;;18.90;99.90;;;;;;5085269;28;20844;-44
2021/01/23 09:28:52;;;;;;;35.85;25.55;;;19.00;99.90;;;;;;5084268;28;20021;-44
2021/01/23 09:31:18;;;;;;;23.92;18.45;;;19.10;99.90;;;;;;5085037;28;20411;-44
2021/01/23 09:33:44;;;;;;;25.70;16.38;;;19.20;99.90;;;;;;5083553;28;20795;-44
2021/01/23 09:36:10;;;;;;;30.05;18.52;;;19.20;99.90;;;;;;5067293;28;20085;-44
2021/01/23 09:38:36;;;;;;;28.38;20.05;;;19.20;99.90;;;;;;5085154;28;20099;-44
2021/01/23 09:41:01;;;;;;;21.15;12.73;;;19.30;99.90;;;;;;5082564;28;20039;-42
2021/01/23 09:43:27;;;;;;;24.77;17.38;;;19.30;99.90;;;;;;5083034;28;20023;-44
2021/01/23 09:45:53;;;;;;;33.05;24.63;;;19.40;99.90;;;;;;5065807;28;20023;-43
2021/01/23 09:48:21;;;;;;;34.67;25.38;;;19.40;99.90;;;;;;5082906;28;20030;-43
2021/01/23 09:50:47;;;;;;;21.88;13.02;;;19.40;99.90;;;;;;5088050;28;20020;-42
2021/01/23 09:53:13;;;;;;;11.40;7.65;;;19.40;99.90;;;;;;5085792;28;20525;-43
2021/01/23 09:55:38;;;;;;;11.32;4.40;;;19.30;99.90;;;;;;5067374;28;20056;-42
2021/01/23 09:58:04;;;;;;;8.38;3.20;;;19.20;99.90;;;;;;5083723;28;20059;-29
2021/01/23 10:00:30;;;;;;;9.65;3.13;;;19.10;99.90;;;;;;5084048;28;20119;-29
2021/01/23 10:02:56;;;;;;;8.63;2.28;;;19.20;99.90;;;;;;5083922;28;20408;-30
2021/01/23 10:05:22;;;;;;;10.13;3.55;;;19.30;99.90;;;;;;5086017;28;20069;-29
2021/01/23 10:07:47;;;;;;;6.35;2.85;;;19.20;99.90;;;;;;5085232;28;20025;-29
2021/01/23 10:10:13;;;;;;;5.15;2.58;;;19.20;99.90;;;;;;5085034;28;20020;-29
2021/01/23 10:12:40;;;;;;;6.88;2.70;;;19.30;99.90;;;;;;5089562;28;20035;-29
2021/01/23 10:15:06;;;;;;;6.00;1.58;;;19.30;99.90;;;;;;5088348;28;20046;-31
2021/01/23 10:17:32;;;;;;;5.60;2.67;;;19.40;99.90;;;;;;5087073;28;20028;-43
2021/01/23 10:19:57;;;;;;;7.30;3.05;;;19.50;99.90;;;;;;5087217;28;20370;-45
2021/01/23 10:22:23;;;;;;;6.53;1.73;;;19.60;99.90;;;;;;5088022;28;20032;-45
2021/01/23 10:24:49;;;;;;;3.20;1.58;;;19.70;99.90;;;;;;5086637;28;20031;-45
2021/01/23 10:27:15;;;;;;;3.92;1.98;;;19.60;99.90;;;;;;5086729;28;20024;-45
2021/01/23 10:29:41;;;;;;;5.00;1.45;;;19.60;99.90;;;;;;5086919;28;20028;-43
2021/01/23 10:32:07;;;;;;;9.18;1.42;;;19.70;99.90;;;;;;5087734;28;20077;-45
2021/01/23 10:34:33;;;;;;;6.78;2.08;;;19.70;99.90;;;;;;5087362;28;20505;-43
2021/01/23 10:36:58;;;;;;;5.93;1.80;;;19.70;99.90;;;;;;5092055;28;20020;-43
2021/01/23 10:39:24;;;;;;;6.53;2.00;;;19.90;99.90;;;;;;5092736;28;20040;-45
2021/01/23 10:41:50;;;;;;;3.45;1.60;;;19.90;99.90;;;;;;5075495;28;20031;-43
2021/01/23 10:44:17;;;;;;;3.20;1.48;;;19.90;99.90;;;;;;5093115;28;20027;-43
2021/01/23 10:46:43;;;;;;;3.78;1.45;;;20.00;99.90;;;;;;5072939;28;20020;-43
2021/01/23 10:49:08;;;;;;;7.43;1.77;;;19.90;99.90;;;;;;5093188;28;20031;-43
2021/01/23 10:51:34;;;;;;;4.70;1.67;;;20.00;99.90;;;;;;5093297;28;20016;-44
2021/01/23 10:54:00;;;;;;;25.98;18.35;;;20.10;99.90;;;;;;5092891;28;20408;-43
2021/01/23 10:56:27;;;;;;;26.80;21.30;;;20.30;99.90;;;;;;5074943;28;20457;-43
2021/01/23 10:58:56;;;;;;;22.05;15.40;;;20.40;99.90;;;;;;5092983;28;20381;-43
2021/01/23 11:01:22;;;;;;;11.55;8.23;;;20.40;99.90;;;;;;5073922;28;20060;-43
2021/01/23 11:03:47;;;;;;;4.82;2.70;;;20.50;99.90;;;;;;5092241;28;20063;-43
2021/01/23 11:06:13;;;;;;;7.38;2.53;;;20.60;99.90;;;;;;5091825;28;20020;-43
2021/01/23 11:08:39;;;;;;;23.45;16.20;;;20.70;99.90;;;;;;5092601;28;20028;-45
2021/01/23 11:11:05;;;;;;;52.50;40.35;;;20.80;99.90;;;;;;5090917;28;20044;-45
2021/01/23 11:13:30;;;;;;;43.65;34.72;;;20.80;99.90;;;;;;5092919;28;20089;-44
2021/01/23 11:15:56;;;;;;;21.95;18.33;;;21.00;99.90;;;;;;5092532;28;20078;-44
2021/01/23 11:18:22;;;;;;;32.90;22.02;;;21.10;99.90;;;;;;5093200;28;20802;-44
2021/01/23 11:20:49;;;;;;;26.95;22.38;;;21.10;99.90;;;;;;5092395;28;20031;-44
2021/01/23 11:23:15;;;;;;;28.88;21.75;;;21.20;99.90;;;;;;5092485;28;20028;-30
2021/01/23 11:25:41;;;;;;;23.10;17.40;;;21.30;99.90;;;;;;5093704;28;20485;-30
2021/01/23 11:28:07;;;;;;;21.77;16.48;;;21.30;99.90;;;;;;5093374;28;20035;-30
2021/01/23 11:30:33;;;;;;;18.52;14.45;;;21.60;99.90;;;;;;5094726;28;20103;-30
2021/01/23 11:32:58;;;;;;;18.80;14.40;;;21.70;99.90;;;;;;5101328;28;20028;-30
2021/01/23 11:35:24;;;;;;;19.25;12.20;;;21.80;99.90;;;;;;5096445;28;20071;-30
2021/01/23 11:37:50;;;;;;;15.20;12.95;;;22.00;99.90;;;;;;5093699;28;20042;-30
2021/01/23 11:40:16;;;;;;;21.52;12.73;;;22.10;99.90;;;;;;5093379;28;20020;-30
2021/01/23 11:42:42;;;;;;;14.80;10.23;;;22.20;99.90;;;;;;5093622;28;20103;-30
2021/01/23 11:45:08;;;;;;;9.60;7.88;;;22.30;99.90;;;;;;5093045;28;20162;-30
2021/01/23 11:47:34;;;;;;;7.63;5.80;;;22.10;99.90;;;;;;5092052;28;20034;-29
2021/01/23 11:50:01;;;;;;;9.32;5.53;;;22.10;99.90;;;;;;5093591;28;20121;-30
2021/01/23 11:52:26;;;;;;;8.55;4.22;;;22.00;99.90;;;;;;5095706;28;20047;-30
2021/01/23 11:54:52;;;;;;;9.88;4.90;;;21.90;99.90;;;;;;5087578;28;20028;-30
2021/01/23 11:57:18;;;;;;;13.15;7.53;;;21.80;99.90;;;;;;5100647;28;20028;-30
2021/01/23 11:59:44;;;;;;;11.35;4.97;;;21.70;99.90;;;;;;5110153;28;20424;-30
2021/01/23 12:02:10;;;;;;;4.63;1.90;;;21.60;99.90;;;;;;5092439;28;20054;-30
2021/01/23 12:04:35;;;;;;;4.40;2.63;;;21.40;99.90;;;;;;5074274;28;20501;-40
2021/01/23 12:07:01;;;;;;;4.32;2.40;;;21.30;99.90;;;;;;5092318;28;20054;-40
2021/01/23 12:09:27;;;;;;;5.88;2.42;;;21.20;99.90;;;;;;5092137;28;20125;-40
2021/01/23 12:11:54;;;;;;;5.65;2.72;;;21.10;99.90;;;;;;5102027;28;20019;-39
2021/01/23 12:14:20;;;;;;;8.20;2.10;;;21.00;99.90;;;;;;5113910;28;20020;-30
2021/01/23 12:16:46;;;;;;;6.07;2.20;;;20.90;99.90;;;;;;5113733;28;20023;-30
2021/01/23 12:19:11;;;;;;;6.50;0.93;;;20.80;99.90;;;;;;5112962;28;20051;-30
2021/01/23 12:21:37;;;;;;;4.10;1.25;;;20.70;99.90;;;;;;5095200;28;20032;-29
2021/01/23 12:24:03;;;;;;;8.55;1.98;;;20.40;99.90;;;;;;5092977;28;20027;-30
2021/01/23 12:26:30;;;;;;;6.18;1.70;;;20.40;99.90;;;;;;5092782;28;20012;-30
2021/01/23 12:28:56;;;;;;;10.07;2.17;;;20.40;99.90;;;;;;5085852;28;20356;-30
2021/01/23 12:31:21;;;;;;;8.82;2.15;;;20.40;99.90;;;;;;5086970;28;20046;-30
2021/01/23 12:33:47;;;;;;;8.57;4.25;;;20.50;99.90;;;;;;5091179;28;20158;-30
2021/01/23 12:36:13;;;;;;;9.90;3.08;;;20.60;99.90;;;;;;5093713;28;20055;-30
2021/01/23 12:38:39;;;;;;;9.43;5.22;;;20.80;99.90;;;;;;5092280;28;20020;-30